createdAt,value
2022-11-12T00:00:12.381Z,102124.13
2022-11-12T00:02:40.622Z,102125.50
2022-11-12T00:05:09.648Z,102121.41
2022-11-12T00:07:37.889Z,102127.81
2022-11-12T00:10:07.394Z,102126.09
2022-11-12T00:12:37.427Z,102125.50
2022-11-12T00:15:06.920Z,102121.41
2022-11-12T00:17:36.679Z,102132.97
2022-11-12T00:20:06.357Z,102116.03
2022-11-12T00:22:35.067Z,102119.72
2022-11-12T00:25:04.854Z,102120.19
2022-11-12T00:27:35.574Z,102112.22
2022-11-12T00:30:14.335Z,102118.50
2022-11-12T00:32:46.222Z,102122.16
2022-11-12T00:35:20.229Z,102114.81
2022-11-12T00:37:56.302Z,102109.41
2022-11-12T00:40:34.464Z,102115.03
2022-11-12T00:43:03.741Z,102102.31
2022-11-12T00:45:39.625Z,102095.41
2022-11-12T00:48:14.029Z,102098.81
2022-11-12T00:50:48.325Z,102097.97
2022-11-12T00:53:18.552Z,102102.31
2022-11-12T00:55:50.784Z,102097.13
2022-11-12T00:58:19.490Z,102095.66
2022-11-12T01:00:52.164Z,102095.41
2022-11-12T01:03:23.090Z,102092.56
2022-11-12T01:05:54.435Z,102084.63
2022-11-12T01:08:24.657Z,102086.09
2022-11-12T01:13:50.211Z,102079.81
2022-11-12T01:16:22.294Z,102076.50
2022-11-12T01:18:56.804Z,102076.63
2022-11-12T01:21:27.189Z,102075.78
2022-11-12T01:24:04.429Z,102073.22
2022-11-12T01:26:35.190Z,102067.22
2022-11-12T01:29:35.087Z,102060.09
2022-11-12T01:32:04.660Z,102055.94
2022-11-12T01:34:35.284Z,102047.16
2022-11-12T01:37:06.531Z,102047.53
2022-11-12T01:39:34.810Z,102050.16
2022-11-12T01:42:06.249Z,102055.81
2022-11-12T01:44:37.299Z,102060.75
2022-11-12T01:47:13.146Z,102052.66
2022-11-12T01:49:53.193Z,102054.88
2022-11-12T01:52:28.653Z,102051.00
2022-11-12T01:55:02.435Z,102059.34
2022-11-12T01:57:35.266Z,102053.63
2022-11-12T02:00:10.574Z,102045.19
2022-11-12T02:02:39.873Z,102045.84
2022-11-12T02:05:12.042Z,102043.16
2022-11-12T02:07:43.182Z,102040.59
2022-11-12T02:10:11.771Z,102046.75
2022-11-12T02:12:57.634Z,102029.63
2022-11-12T02:15:27.162Z,102033.31
2022-11-12T02:17:56.304Z,102025.72
2022-11-12T02:20:27.850Z,102022.94
2022-11-12T02:23:07.050Z,102017.28
2022-11-12T02:25:42.432Z,102015.00
2022-11-12T02:28:17.672Z,102018.53
2022-11-12T02:30:55.062Z,102010.81
2022-11-12T02:33:38.047Z,102009.59
2022-11-12T02:36:10.100Z,102003.72
2022-11-12T02:38:40.016Z,102003.25
2022-11-12T02:41:08.399Z,102003.69
2022-11-12T02:43:37.382Z,102000.38
2022-11-12T02:46:06.687Z,102000.63
2022-11-12T02:48:36.294Z,101997.34
2022-11-12T02:51:07.800Z,101993.88
2022-11-12T02:53:36.625Z,101991.06
2022-11-12T02:56:08.575Z,101980.56
2022-11-12T02:58:37.733Z,101985.19
2022-11-12T03:01:06.759Z,101978.22
2022-11-12T03:03:38.566Z,101969.31
2022-11-12T03:06:14.916Z,101975.03
2022-11-12T03:08:45.325Z,101976.03
2022-11-12T03:11:18.213Z,101963.66
2022-11-12T03:13:48.474Z,101972.84
2022-11-12T03:16:17.012Z,101970.38
2022-11-12T03:18:45.418Z,101964.28
2022-11-12T03:21:14.382Z,101970.59
2022-11-12T03:23:47.694Z,101963.66
2022-11-12T03:26:17.485Z,101963.75
2022-11-12T03:28:46.516Z,101970.97
2022-11-12T03:31:15.507Z,101963.38
2022-11-12T03:34:14.779Z,101967.78
2022-11-12T03:36:46.579Z,101958.34
2022-11-12T03:39:18.544Z,101954.19
2022-11-12T03:42:19.554Z,101954.19
2022-11-12T03:44:48.166Z,101945.41
2022-11-12T03:47:17.424Z,101951.00
2022-11-12T03:49:45.600Z,101951.00
2022-11-12T03:52:13.913Z,101947.59
2022-11-12T03:54:42.260Z,101946.97
2022-11-12T03:57:12.374Z,101951.59
2022-11-12T03:59:40.893Z,101959.66
2022-11-12T04:02:14.649Z,101957.34
2022-11-12T04:05:00.464Z,101952.81
2022-11-12T04:07:49.349Z,101954.16
2022-11-12T04:10:18.012Z,101946.44
2022-11-12T04:13:05.564Z,101943.84
2022-11-12T04:15:34.122Z,101955.69
2022-11-12T04:18:20.095Z,101962.06
2022-11-12T04:21:09.710Z,101962.91
2022-11-12T04:23:37.957Z,101963.03
2022-11-12T04:26:23.626Z,101951.19
2022-11-12T04:29:10.698Z,101961.19
2022-11-12T04:31:39.119Z,101954.59
2022-11-12T04:34:21.276Z,101955.00
2022-11-12T04:36:58.215Z,101951.69
2022-11-12T04:39:26.882Z,101958.34
2022-11-12T04:42:12.639Z,101951.84
2022-11-12T04:45:01.532Z,101950.66
2022-11-12T04:47:38.639Z,101946.88
2022-11-12T04:50:10.886Z,101944.69
2022-11-12T04:52:40.486Z,101953.88
2022-11-12T04:55:14.119Z,101944.56
2022-11-12T04:57:42.278Z,101942.63
2022-11-12T05:00:15.348Z,101942.28
2022-11-12T05:02:53.246Z,101949.22
2022-11-12T05:05:31.088Z,101951.56
2022-11-12T05:08:02.430Z,101944.34
2022-11-12T05:10:32.013Z,101937.88
2022-11-12T05:15:59.108Z,101936.53
2022-11-12T05:18:27.711Z,101927.69
2022-11-12T05:23:43.267Z,101929.78
2022-11-12T05:26:11.424Z,101926.94
2022-11-12T05:28:39.736Z,101928.41
2022-11-12T05:31:31.964Z,101926.31
2022-11-12T05:34:01.748Z,101927.75
2022-11-12T05:36:30.152Z,101922.75
2022-11-12T05:39:00.194Z,101930.19
2022-11-12T05:41:45.006Z,101934.06
2022-11-12T05:44:22.811Z,101935.28
2022-11-12T05:46:54.062Z,101932.47
2022-11-12T05:49:22.813Z,101937.00
2022-11-12T05:51:51.588Z,101938.94
2022-11-12T05:54:20.321Z,101934.53
2022-11-12T05:56:50.577Z,101932.94
2022-11-12T05:59:18.628Z,101925.75
2022-11-12T06:01:47.026Z,101918.75
2022-11-12T06:04:17.550Z,101915.44
2022-11-12T06:06:46.222Z,101915.69
2022-11-12T06:09:16.851Z,101905.50
2022-11-12T06:11:44.896Z,101901.44
2022-11-12T06:14:13.292Z,101908.78
2022-11-12T06:16:41.780Z,101904.47
2022-11-12T06:19:10.245Z,101907.38
2022-11-12T06:21:40.413Z,101899.44
2022-11-12T06:24:09.271Z,101885.38
2022-11-12T06:26:38.187Z,101885.38
2022-11-12T06:29:07.042Z,101881.13
2022-11-12T06:31:42.113Z,101888.41
2022-11-12T06:34:12.590Z,101884.78
2022-11-12T06:36:42.656Z,101884.78
2022-11-12T06:39:12.708Z,101886.63
2022-11-12T06:41:44.089Z,101887.34
2022-11-12T06:44:14.686Z,101876.72
2022-11-12T06:46:47.316Z,101885.63
2022-11-12T06:49:19.465Z,101889.03
2022-11-12T06:54:38.607Z,101898.72
2022-11-12T06:57:16.075Z,101897.63
2022-11-12T07:02:48.781Z,101896.75
2022-11-12T07:05:17.478Z,101895.91
2022-11-12T07:07:49.057Z,101903.97
2022-11-12T07:10:17.643Z,101898.38
2022-11-12T07:12:56.012Z,101903.75
2022-11-12T07:15:43.947Z,101892.16
2022-11-12T07:21:20.299Z,101901.91
2022-11-12T07:26:31.804Z,101924.91
2022-11-12T07:29:00.400Z,101921.22
2022-11-12T07:31:39.241Z,101924.63
2022-11-12T07:34:14.845Z,101928.19
2022-11-12T07:36:43.277Z,101933.22
2022-11-12T07:39:13.393Z,101935.16
2022-11-12T07:41:42.879Z,101937.41
2022-11-12T07:44:11.006Z,101946.25
2022-11-12T07:46:39.120Z,101941.47
2022-11-12T07:49:07.215Z,101936.00
2022-11-12T07:51:35.511Z,101946.50
2022-11-12T07:54:04.376Z,101954.44
2022-11-12T07:56:32.600Z,101946.91
2022-11-12T07:59:02.400Z,101938.72
2022-11-12T08:01:32.398Z,101945.78
2022-11-12T08:04:01.222Z,101950.81
2022-11-12T08:06:30.409Z,101949.84
2022-11-12T08:08:59.909Z,101953.88
2022-11-12T08:11:28.294Z,101948.50
2022-11-12T08:13:56.630Z,101940.94
2022-11-12T08:16:26.891Z,101942.44
2022-11-12T08:18:56.903Z,101944.53
2022-11-12T08:21:25.723Z,101938.06
2022-11-12T08:23:54.205Z,101936.72
2022-11-12T08:26:23.372Z,101933.66
2022-11-12T08:28:51.658Z,101942.13
2022-11-12T08:31:22.401Z,101936.25
2022-11-12T08:33:52.191Z,101934.19
2022-11-12T08:36:20.675Z,101924.66
2022-11-12T08:38:48.982Z,101933.22
2022-11-12T08:41:23.272Z,101924.78
2022-11-12T08:43:54.336Z,101935.56
2022-11-12T08:46:26.695Z,101933.25
2022-11-12T08:48:56.647Z,101937.16
2022-11-12T08:54:08.054Z,101932.50
2022-11-12T08:56:37.433Z,101930.75
2022-11-12T08:59:07.702Z,101930.38
2022-11-12T09:01:36.372Z,101922.66
2022-11-12T09:04:09.323Z,101921.19
2022-11-12T09:06:43.150Z,101915.75
2022-11-12T09:09:14.002Z,101911.81
2022-11-12T09:11:45.668Z,101916.44
2022-11-12T09:14:14.357Z,101907.69
2022-11-12T09:16:49.672Z,101905.38
2022-11-12T09:19:25.591Z,101900.44
2022-11-12T09:22:04.701Z,101900.69
2022-11-12T09:24:42.095Z,101893.31
2022-11-12T09:27:15.322Z,101882.97
2022-11-12T09:29:44.682Z,101881.34
2022-11-12T09:32:16.010Z,101879.34
2022-11-12T09:34:46.378Z,101873.56
2022-11-12T09:37:28.669Z,101875.16
2022-11-12T09:39:57.469Z,101877.72
2022-11-12T09:42:30.847Z,101877.16
2022-11-12T09:45:05.733Z,101876.31
2022-11-12T09:47:39.688Z,101873.47
2022-11-12T09:50:28.355Z,101872.69
2022-11-12T09:53:04.006Z,101873.13
2022-11-12T09:55:40.057Z,101875.31
2022-11-12T09:58:19.854Z,101865.06
2022-11-12T10:00:59.018Z,101858.03
2022-11-12T10:03:39.480Z,101856.06
2022-11-12T10:06:19.495Z,101847.13
2022-11-12T10:09:20.785Z,101840.19
2022-11-12T10:16:00.045Z,101847.72
2022-11-12T10:18:52.513Z,101840.94
2022-11-12T10:21:42.368Z,101852.34
2022-11-12T10:24:15.350Z,101842.41
2022-11-12T10:26:44.403Z,101846.81
2022-11-12T10:29:24.231Z,101848.09
2022-11-12T10:31:52.783Z,101858.22
2022-11-12T10:34:46.481Z,101858.22
2022-11-12T10:37:42.020Z,101861.94
2022-11-12T10:40:36.249Z,101861.50
2022-11-12T10:43:13.736Z,101864.91
2022-11-12T10:45:45.420Z,101865.06
2022-11-12T10:48:27.359Z,101861.63
2022-11-12T10:50:56.574Z,101851.13
2022-11-12T10:53:36.674Z,101856.97
2022-11-12T10:56:22.604Z,101855.69
2022-11-12T10:59:12.773Z,101857.81
2022-11-12T11:01:45.490Z,101862.22
2022-11-12T11:04:24.054Z,101851.56
2022-11-12T11:07:01.999Z,101858.09
2022-11-12T11:09:32.785Z,101856.81
2022-11-12T11:12:02.241Z,101851.97
2022-11-12T11:14:33.582Z,101834.56
2022-11-12T11:17:08.673Z,101845.09
2022-11-12T11:19:43.362Z,101844.25
2022-11-12T11:22:38.890Z,101843.81
2022-11-12T11:25:21.912Z,101834.25
2022-11-12T11:28:09.226Z,101830.38
2022-11-12T11:30:42.831Z,101830.50
2022-11-12T11:33:27.689Z,101826.34
2022-11-12T11:36:09.930Z,101835.91
2022-11-12T11:38:53.423Z,101825.63
2022-11-12T11:41:50.790Z,101830.16
2022-11-12T11:44:28.555Z,101832.53
2022-11-12T11:47:12.637Z,101828.13
2022-11-12T11:50:08.055Z,101822.25
2022-11-12T11:52:47.183Z,101819.31
2022-11-12T11:55:29.796Z,101815.97
2022-11-12T11:58:11.031Z,101814.44
2022-11-12T12:00:48.909Z,101810.66
2022-11-12T12:03:21.913Z,101807.19
2022-11-12T12:06:12.368Z,101808.88
2022-11-12T12:09:22.108Z,101802.66
2022-11-12T12:12:03.806Z,101790.19
2022-11-12T12:14:51.152Z,101792.47
2022-11-12T12:17:32.135Z,101788.94
2022-11-12T12:20:07.638Z,101782.28
2022-11-12T12:22:40.214Z,101785.56
2022-11-12T12:25:15.972Z,101779.06
2022-11-12T12:27:52.966Z,101793.09
2022-11-12T12:30:25.129Z,101786.25
2022-11-12T12:32:58.805Z,101789.38
2022-11-12T12:35:32.333Z,101787.72
2022-11-12T12:38:13.659Z,101781.63
2022-11-12T12:40:51.612Z,101780.97
2022-11-12T12:43:28.707Z,101784.06
2022-11-12T12:45:59.178Z,101787.44
2022-11-12T12:48:31.954Z,101798.31
2022-11-12T12:51:00.532Z,101790.47
2022-11-12T12:53:43.587Z,101788.78
2022-11-12T12:56:48.902Z,101780.09
2022-11-12T12:59:24.693Z,101775.34
2022-11-12T13:02:00.610Z,101768.03
2022-11-12T13:04:55.362Z,101768.19
2022-11-12T13:07:43.764Z,101747.97
2022-11-12T13:10:52.788Z,101744.22
2022-11-12T13:13:34.230Z,101745.25
2022-11-12T13:16:03.742Z,101744.22
2022-11-12T13:19:02.575Z,101747.13
2022-11-12T13:21:31.464Z,101744.56
2022-11-12T13:24:11.216Z,101735.75
2022-11-12T13:26:49.996Z,101736.28
2022-11-12T13:29:24.605Z,101728.00
2022-11-12T13:32:30.478Z,101734.78
2022-11-12T13:35:40.810Z,101722.56
2022-11-12T13:38:16.033Z,101719.19
2022-11-12T13:40:47.543Z,101713.56
2022-11-12T13:43:27.709Z,101713.75
2022-11-12T13:46:01.101Z,101703.56
2022-11-12T13:48:32.192Z,101713.75
2022-11-12T13:51:15.206Z,101710.00
2022-11-12T13:53:43.801Z,101694.09
2022-11-12T13:56:12.388Z,101688.16
2022-11-12T13:58:41.602Z,101686.75
2022-11-12T14:01:12.971Z,101690.97
2022-11-12T14:04:03.006Z,101692.16
2022-11-12T14:06:37.782Z,101693.69
2022-11-12T14:13:18.039Z,101667.47
2022-11-12T14:16:16.109Z,101672.53
2022-11-12T14:19:12.031Z,101674.59
2022-11-12T14:24:36.717Z,101663.66
2022-11-12T14:27:51.975Z,101669.84
2022-11-12T14:30:32.751Z,101672.91
2022-11-12T14:33:10.164Z,101676.75
2022-11-12T14:35:55.097Z,101683.53
2022-11-12T14:38:33.422Z,101675.34
2022-11-12T14:41:20.424Z,101672.34
2022-11-12T14:44:10.952Z,101678.28
2022-11-12T14:46:47.027Z,101683.16
2022-11-12T14:49:23.355Z,101675.47
2022-11-12T14:52:09.988Z,101684.47
2022-11-12T14:54:44.407Z,101680.78
2022-11-12T14:57:21.896Z,101670.00
2022-11-12T14:59:50.822Z,101667.16
2022-11-12T15:02:46.919Z,101666.25
2022-11-12T15:05:17.092Z,101664.47
2022-11-12T15:07:58.185Z,101661.59
2022-11-12T15:10:36.884Z,101655.09
2022-11-12T15:13:08.701Z,101664.19
2022-11-12T15:15:39.936Z,101660.81
2022-11-12T15:18:15.764Z,101670.22
2022-11-12T15:20:44.028Z,101661.47
2022-11-12T15:23:19.422Z,101662.41
2022-11-12T15:25:59.262Z,101658.59
2022-11-12T15:28:28.180Z,101640.19
2022-11-12T15:31:04.007Z,101647.06
2022-11-12T15:33:32.382Z,101647.06
2022-11-12T15:36:02.493Z,101656.13
2022-11-12T15:38:38.058Z,101644.41
2022-11-12T15:41:08.368Z,101646.16
2022-11-12T15:43:42.584Z,101642.25
2022-11-12T15:46:15.290Z,101632.94
2022-11-12T15:48:43.704Z,101623.75
2022-11-12T15:51:12.578Z,101623.91
2022-11-12T15:53:40.920Z,101626.28
2022-11-12T15:56:17.477Z,101625.06
2022-11-12T15:58:45.819Z,101620.66
2022-11-12T16:01:14.305Z,101619.88
2022-11-12T16:03:42.473Z,101609.28
2022-11-12T16:06:13.864Z,101602.81
2022-11-12T16:08:43.732Z,101601.06
2022-11-12T16:11:28.587Z,101608.13
2022-11-12T16:13:56.907Z,101603.38
2022-11-12T16:16:25.218Z,101598.41
2022-11-12T16:19:11.001Z,101590.56
2022-11-12T16:21:39.869Z,101612.81
2022-11-12T16:30:26.538Z,101592.63
2022-11-12T16:32:55.092Z,101589.78
2022-11-12T16:55:29.085Z,101577.25
2022-11-12T16:58:35.719Z,101573.16
2022-11-12T17:01:25.547Z,101584.69
2022-11-12T17:04:07.259Z,101586.16
2022-11-12T17:06:40.958Z,101590.53
2022-11-12T17:09:15.841Z,101594.25
2022-11-12T17:12:36.425Z,101592.84
2022-11-12T17:15:16.606Z,101596.16
2022-11-12T17:17:45.582Z,101599.00
2022-11-12T18:02:06.438Z,101624.66
2022-11-12T18:07:49.124Z,101623.38
2022-11-12T18:10:19.646Z,101625.34
2022-11-12T18:12:48.333Z,101620.28
2022-11-12T18:15:17.105Z,101623.94
2022-11-12T18:17:55.336Z,101629.94
2022-11-12T18:20:23.805Z,101614.88
2022-11-12T18:22:52.364Z,101621.56
2022-11-12T18:25:20.593Z,101619.00
2022-11-12T18:27:54.806Z,101612.84
2022-11-12T18:30:23.777Z,101609.75
2022-11-12T18:32:53.442Z,101609.75
2022-11-12T18:35:25.839Z,101607.47
2022-11-12T19:34:39.230Z,101598.69
2022-11-12T19:39:44.441Z,101606.88
2022-11-12T19:42:13.763Z,101596.97
2022-11-12T19:50:31.237Z,101600.94
2022-11-12T19:53:04.270Z,101611.44
2022-11-12T19:55:51.977Z,101611.72
2022-11-12T19:58:21.319Z,101606.19
2022-11-12T20:01:04.141Z,101615.13
2022-11-12T20:15:05.599Z,101618.25
2022-11-12T20:17:34.626Z,101621.78
2022-11-12T21:40:40.326Z,101624.44
2022-11-12T21:43:09.180Z,101624.03
2022-11-12T21:49:07.696Z,101607.84
2022-11-12T21:51:54.215Z,101607.16
2022-11-12T22:06:31.833Z,101608.84
2022-11-12T22:09:00.248Z,101615.66
2022-11-12T22:11:35.611Z,101620.06
2022-11-12T22:14:04.390Z,101625.31
2022-11-12T22:16:32.642Z,101628.59
2022-11-12T22:19:02.959Z,101619.50
2022-11-12T22:21:39.714Z,101617.81
2022-11-12T22:24:09.685Z,101614.00
2022-11-12T22:26:53.104Z,101617.69
2022-11-12T22:29:21.725Z,101614.84
2022-11-12T22:47:48.621Z,101586.84
2022-11-12T22:50:22.492Z,101582.72
2022-11-12T22:56:03.535Z,101592.50
2022-11-12T23:01:10.789Z,101592.66
2022-11-12T23:06:19.079Z,101578.34
2022-11-12T23:08:51.589Z,101583.56
2022-11-12T23:19:30.509Z,101585.84
2022-11-12T23:21:58.713Z,101596.34
2022-11-12T23:24:27.359Z,101597.34
2022-11-12T23:27:07.312Z,101597.78
2022-11-12T23:29:41.835Z,101596.63
2022-11-12T23:32:16.422Z,101597.34
2022-11-12T23:41:06.690Z,101580.59
